• Join FlightAware (Why Join?)
  • Login
  • US Flag 
09:57AM EDT


 

Airport Tracker/Info


-or-


 

Live Flight TrackerFlight Track Log ✈ ASA558 ✈ 30-Apr-2013 ✈ KSEA - KPSP

Flight Track Log - Related Links

Times and Time Zones

All times are in EDT time to prevent confusion due to time zone crossing. See the ASA558 flight status page for this flight to view local times or setup timezone preferences in your user account.

Time Position Orientation Groundspeed Altitude Reporting Facility
EDT Latitude Longitude Course Direction KTS MPH feet Rate Location/Type
04:02PM 47.4569 -122.3083 360° North 142 163 1,200  Level Seattle Center
04:04PM 47.5108 -122.3086 360° North 178 205 3,700 2,580 Climbing Seattle Center
04:05PM 47.5700 -122.3344 344° North 203 234 7,100 3,180 Climbing Seattle Center
04:06PM 47.5925 -122.4047 295° West 230 265 10,200 2,040 Climbing Seattle Center
04:07PM 47.5256 -122.4036 179° South 316 364 11,300 2,400 Climbing Seattle Center
04:08PM 47.4153 -122.3511 162° South 349 402 15,200 3,120 Climbing Seattle Center
04:09PM 47.3150 -122.3067 163° South 376 433 17,700 2,700 Climbing Seattle Center
04:10PM 47.2072 -122.2589 163° South 403 464 20,700 2,520 Climbing Seattle Center
04:11PM 47.0922 -122.2056 162° South 435 501 22,900 1,920 Climbing Seattle Center
04:12PM 46.9689 -122.1506 163° South 462 532 24,700 1,860 Climbing Seattle Center
04:13PM 46.8325 -122.1047 167° South 489 563 26,700 1,980 Climbing Seattle Center
04:14PM 46.6947 -122.0556 166° South 510 587 28,700 1,980 Climbing Seattle Center
04:15PM 46.5517 -122.0089 167° South 526 605 30,700 1,920 Climbing Seattle Center
04:16PM 46.3778 -121.9506 167° South 538 619 32,700 1,920 Climbing Seattle Center
04:17PM 46.2306 -121.9008 167° South 546 628 34,700 1,920 Climbing Seattle Center
04:18PM 46.0828 -121.8497 167° South 540 621 36,700 1,800 Climbing Seattle Center
04:19PM 45.9414 -121.8033 167° South 525 604 38,400 1,080 Climbing Seattle Center
04:20PM 45.8028 -121.7531 166° South 518 596 39,000 240 Climbing Seattle Center
04:21PM 45.6583 -121.7083 168° South 529 609 39,000  Level Seattle Center
04:22PM 45.5144 -121.6622 167° South 531 611 39,000  Level Seattle Center
04:23PM 45.3722 -121.6164 167° South 529 609 39,000  Level Seattle Center
04:24PM 45.2317 -121.5708 167° South 524 603 39,000  Level Seattle Center
04:25PM 45.0908 -121.5244 167° South 522 601 39,000  Level Seattle Center
04:26PM 44.9544 -121.4797 167° South 516 594 39,000  Level Seattle Center
04:27PM 44.7861 -121.4264 167° South 517 595 39,000  Level Seattle Center
04:28PM 44.6467 -121.3822 167° South 519 597 39,000  Level Seattle Center
04:29PM 44.5017 -121.3361 167° South 518 596 39,000  Level Seattle Center
04:30PM 44.3617 -121.2919 167° South 520 598 39,000  Level Seattle Center
04:31PM 44.2258 -121.2503 168° South 520 598 39,000  Level Seattle Center
04:32PM 44.0858 -121.2100 168° South 519 597 39,000  Level Seattle Center
04:33PM 43.9447 -121.1639 167° South 523 602 39,000  Level Seattle Center
04:34PM 43.8042 -121.1192 167° South 521 600 39,000  Level Seattle Center
04:35PM 43.6642 -121.0761 167° South 518 596 39,000  Level Seattle Center
04:36PM 43.5217 -121.0342 168° South 519 597 39,000  Level Seattle Center
04:37PM 43.3792 -120.9928 168° South 520 598 39,000  Level Seattle Center
04:38PM 43.2347 -120.9522 168° South 525 604 39,000  Level Seattle Center
04:39PM 43.0642 -120.9069 169° South 522 601 39,000  Level Seattle Center
04:40PM 42.9197 -120.8697 169° South 524 603 39,000  Level Seattle Center
04:41PM 42.7797 -120.8353 170° South 511 588 39,000  Level Seattle Center
04:42PM 42.6403 -120.8025 170° South 508 585 39,000  Level Seattle Center
04:43PM 42.5000 -120.7683 170° South 508 585 39,000  Level Seattle Center
04:44PM 42.3614 -120.7356 170° South 505 581 39,000  Level Seattle Center
04:45PM 42.2231 -120.7017 170° South 503 579 39,000  Level Seattle Center
04:46PM 42.0856 -120.6678 170° South 501 577 39,000  Level Seattle Center
04:47PM 41.9475 -120.6361 170° South 502 578 39,000  Level Seattle Center
04:48PM 41.8094 -120.6033 170° South 501 577 39,000  Level Seattle Center
04:49PM 41.6742 -120.5706 170° South 495 570 39,000  Level Seattle Center
04:50PM 41.5397 -120.5389 170° South 490 564 39,000  Level Seattle Center
04:51PM 41.4067 -120.5072 170° South 486 559 39,000  Level Seattle Center
04:52PM 41.2739 -120.4781 171° South 484 557 39,000  Level Seattle Center
04:53PM 41.1417 -120.4467 170° South 481 554 39,000  Level Seattle Center
04:54PM 41.0100 -120.4164 170° South 479 551 39,000  Level Seattle Center
04:55PM 40.8792 -120.3758 167° South 482 555 39,000  Level Seattle Center
04:56PM 40.7475 -120.3372 167° South 483 556 39,000  Level Seattle Center
04:57PM 40.6172 -120.2953 166° South 483 556 39,000  Level Oakland Center
04:57PM 40.6172 -120.2953 166° South 482 555 39,000  Level Seattle Center
04:58PM 40.4653 -120.2483 167° South 481 554 39,000  Level Oakland Center
04:59PM 40.3353 -120.2094 167° South 480 552 39,000  Level Seattle Center
05:00PM 40.2053 -120.1706 167° South 478 550 39,000  Level Oakland Center
05:01PM 40.0756 -120.1308 167° South 479 551 39,000  Level Oakland Center
05:02PM 39.9472 -120.0914 167° South 478 550 39,000  Level Oakland Center
05:03PM 39.8192 -120.0536 167° South 475 547 39,000  Level Oakland Center
05:04PM 39.6922 -120.0144 167° South 471 542 39,000  Level Oakland Center
05:05PM 39.5661 -119.9761 167° South 467 537 39,000  Level Oakland Center
05:06PM 39.4392 -119.9392 167° South 469 540 39,000  Level Oakland Center
05:07PM 39.2836 -119.8933 167° South 478 550 39,000  Level Oakland Center
05:09PM 39.1561 -119.8553 167° South 474 545 39,000  Level Oakland Center
05:10PM 39.0300 -119.8183 167° South 469 540 39,000  Level Oakland Center
05:11PM 38.9061 -119.7828 167° South 461 531 39,000  Level Oakland Center
05:12PM 38.7844 -119.7461 167° South 453 521 39,000  Level Oakland Center
05:13PM 38.6600 -119.7100 167° South 457 526 39,000  Level Oakland Center
05:14PM 38.5342 -119.6733 167° South 461 531 39,000  Level Oakland Center
05:15PM 38.3983 -119.6344 167° South 456 525 39,000  Level Oakland Center
05:16PM 38.2733 -119.5975 167° South 457 526 39,000  Level Oakland Center
05:17PM 38.1494 -119.5633 168° South 454 522 39,000  Level Oakland Center
05:18PM 38.0292 -119.5256 166° South 447 514 39,000  Level Oakland Center
05:19PM 37.9056 -119.4911 168° South 450 518 39,000  Level Oakland Center
05:20PM 37.7775 -119.4594 169° South 459 528 39,000  Level Oakland Center
05:21PM 37.6550 -119.4256 168° South 452 520 39,000  Level Oakland Center
05:22PM 37.4586 -119.3678 167° South 451 519 39,000  Level Los Angeles Center
05:23PM 37.4017 -119.3539 169° South 454 522 39,000  Level Oakland Center
05:24PM 37.2775 -119.3189 167° South 459 528 39,000  Level Oakland Center
05:25PM 37.1292 -119.2775 167° South 455 524 39,000  Level Oakland Center
05:26PM 37.0058 -119.2439 168° South 454 522 39,000  Level Oakland Center
05:27PM 36.8831 -119.2097 167° South 450 518 39,000  Level Oakland Center
05:28PM 36.7617 -119.1775 168° South 444 511 39,000  Level Oakland Center
05:29PM 36.6400 -119.1436 167° South 447 514 39,000  Level Oakland Center
05:30PM 36.5178 -119.1103 168° South 447 514 39,000  Level Oakland Center
05:31PM 36.3958 -119.0764 167° South 449 517 39,000  Level Oakland Center
05:32PM 36.2744 -119.0450 168° South 444 511 39,000  Level Oakland Center
05:33PM 36.1533 -119.0122 168° South 444 511 39,000  Level Oakland Center
05:34PM 36.0333 -118.9722 165° South 444 511 39,000  Level Oakland Center
05:35PM 35.8903 -118.9211 164° South 444 511 39,000  Level Oakland Center
05:36PM 35.7711 -118.8797 164° South 444 511 39,000  Level Oakland Center
05:37PM 35.6508 -118.8375 164° South 445 512 39,000  Level Oakland Center
05:38PM 35.5806 -118.8131 164° South 441 507 39,000  Level Los Angeles Center
05:39PM 35.4614 -118.7714 164° South 442 509 39,000 -1,140 Level Los Angeles Center
05:40PM 35.2936 -118.7144 165° South 446 513 36,500 -2,400 Descending Los Angeles Center
05:41PM 35.1758 -118.6722 164° South 443 510 34,100 -2,160 Descending Los Angeles Center
05:42PM 35.0564 -118.6325 165° South 442 509 32,100 -2,040 Descending Los Angeles Center
05:43PM 34.9658 -118.5483 143° Southeast 421 484 30,000 -2,100 Descending Los Angeles Center
05:44PM 34.8819 -118.4275 130° Southeast 413 475 27,800 -2,040 Descending Los Angeles Center
05:45PM 34.8111 -118.3242 130° Southeast 402 463 25,800 -1,860 Descending Los Angeles Center
05:46PM 34.7422 -118.2242 130° Southeast 391 450 24,000 -900 Descending Los Angeles Center
05:47PM 34.6742 -118.1267 130° Southeast 382 440 24,000 -720 Level Los Angeles Center
05:48PM 34.6133 -118.0250 126° Southeast 380 437 22,600 -1,020 Descending Los Angeles Center
05:49PM 34.5525 -117.8944 119° Southeast 374 430 22,000 -300 Descending Los Angeles Center
05:50PM 34.5008 -117.7800 119° Southeast 388 447 22,000  Level Los Angeles Center
05:52PM 34.4456 -117.6603 119° Southeast 407 468 22,000 -720 Level Los Angeles Center
05:53PM 34.3906 -117.5406 119° Southeast 410 472 20,600 -1,800 Descending Los Angeles Center
05:54PM 34.3319 -117.4131 119° Southeast 398 458 18,400 -1,800 Descending Los Angeles Center
05:55PM 34.2794 -117.2997 119° Southeast 390 449 17,000 -1,260 Descending Los Angeles Center
05:56PM 34.2294 -117.1917 119° Southeast 372 428 15,800 -1,500 Descending Los Angeles Center
05:57PM 34.1736 -117.0733 120° Southeast 371 427 14,000 -960 Descending Los Angeles Center
05:58PM 34.1192 -116.9553 119° Southeast 355 409 13,900 60 Descending Los Angeles Center
05:59PM 34.0767 -116.8650 120° Southeast 310 357 14,200 120 Climbing Los Angeles Center
06:00PM 34.0356 -116.7789 120° Southeast 296 341 14,200 -540 Level Los Angeles Center
06:01PM 33.9947 -116.6925 120° Southeast 295 339 13,100 -1,080 Descending Los Angeles Center
06:02PM 33.9556 -116.6078 119° Southeast 289 333 12,000 -1,860 Descending Los Angeles Center
06:03PM 33.9189 -116.5275 119° Southeast 278 320 9,300 -1,500 Descending Los Angeles Center
06:04PM 33.8828 -116.4667 126° Southeast 228 262 9,000 -1,500 Descending Los Angeles Center
06:06PM 33.7833 -116.4000 151° Southeast 157 181 4,200 -1,920 Descending Southern California TRACON
06:07PM 33.7667 -116.4500 248° West 159 183 2,500 -1,620 Descending Southern California TRACON
06:08PM 33.8000 -116.4833 320° Northwest 143 165 1,000 -1,500 Descending Southern California TRACON
06:10PM 33.8167 -116.5000 239° Southwest  Level FlightAware Approximate
06:17PM 33.8297 -116.5067 239° Southwest  Level Estimated
06:18PM 33.8297 -116.5067 239° Southwest  Level Estimated